sensor_id;sensor_type;location;lat;lon;timestamp;pressure;altitude;pressure_sealevel;temperature;humidity
32033;BME280;31720;52.638;9.216;2022-09-03T00:03:09;101317.94;;;16.89;52.87
32033;BME280;31720;52.638;9.216;2022-09-03T00:06:15;101328.81;;;16.86;52.74
32033;BME280;31720;52.638;9.216;2022-09-03T00:09:22;101324.56;;;16.84;53.06
32033;BME280;31720;52.638;9.216;2022-09-03T00:12:28;101320.66;;;16.77;53.17
32033;BME280;31720;52.638;9.216;2022-09-03T00:15:32;101321.13;;;16.69;53.38
32033;BME280;31720;52.638;9.216;2022-09-03T00:18:40;101321.66;;;16.61;53.89
32033;BME280;31720;52.638;9.216;2022-09-03T00:21:47;101321.97;;;16.57;54.48
32033;BME280;31720;52.638;9.216;2022-09-03T00:24:51;101321.34;;;16.53;54.31
32033;BME280;31720;52.638;9.216;2022-09-03T00:27:56;101310.19;;;16.48;54.63
32033;BME280;31720;52.638;9.216;2022-09-03T00:31:06;101315.75;;;16.45;54.79
32033;BME280;31720;52.638;9.216;2022-09-03T00:34:16;101313.09;;;16.45;55.08
32033;BME280;31720;52.638;9.216;2022-09-03T00:37:20;101320.59;;;16.38;55.21
32033;BME280;31720;52.638;9.216;2022-09-03T00:40:35;101313.50;;;16.26;55.42
32033;BME280;31720;52.638;9.216;2022-09-03T00:43:52;101311.88;;;16.23;56.10
32033;BME280;31720;52.638;9.216;2022-09-03T00:46:59;101315.59;;;16.21;55.76
32033;BME280;31720;52.638;9.216;2022-09-03T00:50:06;101306.69;;;16.22;56.22
32033;BME280;31720;52.638;9.216;2022-09-03T00:53:13;101311.03;;;16.23;56.11
32033;BME280;31720;52.638;9.216;2022-09-03T00:56:21;101312.00;;;16.22;56.18
32033;BME280;31720;52.638;9.216;2022-09-03T00:59:33;101308.41;;;16.23;56.08
32033;BME280;31720;52.638;9.216;2022-09-03T01:02:56;101304.44;;;16.16;56.36
32033;BME280;31720;52.638;9.216;2022-09-03T01:06:11;101308.06;;;16.15;56.21
32033;BME280;31720;52.638;9.216;2022-09-03T01:09:26;101304.38;;;16.17;56.43
32033;BME280;31720;52.638;9.216;2022-09-03T01:12:36;101302.22;;;16.10;56.43
32033;BME280;31720;52.638;9.216;2022-09-03T01:15:47;101297.34;;;16.04;56.83
32033;BME280;31720;52.638;9.216;2022-09-03T01:18:58;101302.53;;;16.05;57.19
32033;BME280;31720;52.638;9.216;2022-09-03T01:22:18;101305.00;;;16.08;56.75
32033;BME280;31720;52.638;9.216;2022-09-03T01:25:32;101306.56;;;16.11;56.78
32033;BME280;31720;52.638;9.216;2022-09-03T01:28:51;101304.34;;;16.05;57.15
32033;BME280;31720;52.638;9.216;2022-09-03T01:32:02;101296.47;;;16.03;57.26
32033;BME280;31720;52.638;9.216;2022-09-03T01:35:10;101298.50;;;16.00;57.14
32033;BME280;31720;52.638;9.216;2022-09-03T01:38:22;101307.50;;;15.97;57.63
32033;BME280;31720;52.638;9.216;2022-09-03T01:41:35;101300.31;;;15.99;57.58
32033;BME280;31720;52.638;9.216;2022-09-03T01:45:26;101302.97;;;15.99;57.53
32033;BME280;31720;52.638;9.216;2022-09-03T01:48:42;101297.84;;;15.96;57.40
32033;BME280;31720;52.638;9.216;2022-09-03T01:51:45;101307.81;;;15.92;57.73
32033;BME280;31720;52.638;9.216;2022-09-03T01:54:51;101298.34;;;15.88;57.74
32033;BME280;31720;52.638;9.216;2022-09-03T01:58:04;101308.09;;;15.88;57.73
32033;BME280;31720;52.638;9.216;2022-09-03T02:01:13;101306.59;;;15.84;57.84
32033;BME280;31720;52.638;9.216;2022-09-03T02:04:19;101307.56;;;15.83;58.13
32033;BME280;31720;52.638;9.216;2022-09-03T02:07:22;101314.78;;;15.81;58.50
32033;BME280;31720;52.638;9.216;2022-09-03T02:10:28;101308.72;;;15.79;58.05
32033;BME280;31720;52.638;9.216;2022-09-03T02:13:35;101306.69;;;15.69;58.30
32033;BME280;31720;52.638;9.216;2022-09-03T02:16:39;101310.28;;;15.68;58.58
32033;BME280;31720;52.638;9.216;2022-09-03T02:19:43;101310.41;;;15.67;58.52
32033;BME280;31720;52.638;9.216;2022-09-03T02:22:45;101316.31;;;15.70;58.50
32033;BME280;31720;52.638;9.216;2022-09-03T02:25:50;101309.44;;;15.68;58.40
32033;BME280;31720;52.638;9.216;2022-09-03T02:28:53;101308.09;;;15.61;58.64
32033;BME280;31720;52.638;9.216;2022-09-03T02:31:57;101299.41;;;15.59;58.65
32033;BME280;31720;52.638;9.216;2022-09-03T02:34:59;101310.19;;;15.56;59.04
32033;BME280;31720;52.638;9.216;2022-09-03T02:38:08;101309.34;;;15.55;58.98
32033;BME280;31720;52.638;9.216;2022-09-03T02:41:10;101314.34;;;15.60;58.97
32033;BME280;31720;52.638;9.216;2022-09-03T02:44:18;101310.09;;;15.57;59.02
32033;BME280;31720;52.638;9.216;2022-09-03T02:47:29;101312.00;;;15.55;59.00
32033;BME280;31720;52.638;9.216;2022-09-03T02:50:39;101309.47;;;15.54;59.40
32033;BME280;31720;52.638;9.216;2022-09-03T02:53:41;101311.94;;;15.42;59.45
32033;BME280;31720;52.638;9.216;2022-09-03T02:56:42;101308.84;;;15.36;59.53
32033;BME280;31720;52.638;9.216;2022-09-03T02:59:47;101317.94;;;15.32;59.97
32033;BME280;31720;52.638;9.216;2022-09-03T03:02:50;101302.25;;;15.29;60.20
32033;BME280;31720;52.638;9.216;2022-09-03T03:05:53;101298.84;;;15.27;60.08
32033;BME280;31720;52.638;9.216;2022-09-03T03:08:55;101302.53;;;15.24;60.14
32033;BME280;31720;52.638;9.216;2022-09-03T03:11:57;101301.31;;;15.15;60.42
32033;BME280;31720;52.638;9.216;2022-09-03T03:14:58;101300.88;;;15.09;60.86
32033;BME280;31720;52.638;9.216;2022-09-03T03:18:01;101302.75;;;15.07;60.82
32033;BME280;31720;52.638;9.216;2022-09-03T03:21:03;101303.03;;;15.02;61.46
32033;BME280;31720;52.638;9.216;2022-09-03T03:24:05;101309.41;;;15.00;61.38
32033;BME280;31720;52.638;9.216;2022-09-03T03:27:07;101306.94;;;14.96;61.72
32033;BME280;31720;52.638;9.216;2022-09-03T03:30:11;101303.44;;;14.96;61.60
32033;BME280;31720;52.638;9.216;2022-09-03T03:33:13;101303.63;;;14.93;61.17
32033;BME280;31720;52.638;9.216;2022-09-03T03:36:15;101293.25;;;14.90;61.69
32033;BME280;31720;52.638;9.216;2022-09-03T03:39:16;101306.56;;;14.88;61.76
32033;BME280;31720;52.638;9.216;2022-09-03T03:42:18;101306.66;;;14.87;61.54
32033;BME280;31720;52.638;9.216;2022-09-03T03:45:19;101305.88;;;14.85;61.47
32033;BME280;31720;52.638;9.216;2022-09-03T03:48:22;101307.91;;;14.81;61.94
32033;BME280;31720;52.638;9.216;2022-09-03T03:51:23;101308.81;;;14.80;61.89
32033;BME280;31720;52.638;9.216;2022-09-03T03:54:25;101312.81;;;14.73;62.03
32033;BME280;31720;52.638;9.216;2022-09-03T03:57:29;101310.06;;;14.75;62.27
32033;BME280;31720;52.638;9.216;2022-09-03T04:00:30;101313.75;;;14.72;62.30
32033;BME280;31720;52.638;9.216;2022-09-03T04:03:38;101316.13;;;14.77;62.21
32033;BME280;31720;52.638;9.216;2022-09-03T04:06:39;101312.63;;;14.76;62.39
32033;BME280;31720;52.638;9.216;2022-09-03T04:09:41;101312.81;;;14.73;62.62
32033;BME280;31720;52.638;9.216;2022-09-03T04:12:42;101306.84;;;14.69;62.31
32033;BME280;31720;52.638;9.216;2022-09-03T04:15:43;101307.81;;;14.68;62.31
32033;BME280;31720;52.638;9.216;2022-09-03T04:18:46;101305.22;;;14.67;62.09
32033;BME280;31720;52.638;9.216;2022-09-03T04:21:48;101306.38;;;14.63;62.53
32033;BME280;31720;52.638;9.216;2022-09-03T04:24:49;101304.88;;;14.59;62.59
32033;BME280;31720;52.638;9.216;2022-09-03T04:27:51;101304.03;;;14.58;62.74
32033;BME280;31720;52.638;9.216;2022-09-03T04:30:53;101305.06;;;14.56;62.66
32033;BME280;31720;52.638;9.216;2022-09-03T04:33:55;101300.72;;;14.55;62.95
32033;BME280;31720;52.638;9.216;2022-09-03T04:36:57;101299.19;;;14.51;62.95
32033;BME280;31720;52.638;9.216;2022-09-03T04:39:58;101301.00;;;14.50;62.98
32033;BME280;31720;52.638;9.216;2022-09-03T04:42:59;101305.56;;;14.46;63.26
32033;BME280;31720;52.638;9.216;2022-09-03T04:46:02;101302.38;;;14.41;63.41
32033;BME280;31720;52.638;9.216;2022-09-03T04:49:06;101303.38;;;14.39;63.34
32033;BME280;31720;52.638;9.216;2022-09-03T04:52:08;101308.78;;;14.37;63.46
32033;BME280;31720;52.638;9.216;2022-09-03T04:55:10;101308.69;;;14.39;63.85
32033;BME280;31720;52.638;9.216;2022-09-03T04:58:11;101312.09;;;14.41;63.63
32033;BME280;31720;52.638;9.216;2022-09-03T05:01:16;101316.53;;;14.40;63.16
32033;BME280;31720;52.638;9.216;2022-09-03T05:04:18;101318.50;;;14.37;63.42
32033;BME280;31720;52.638;9.216;2022-09-03T05:07:20;101312.44;;;14.35;63.12
32033;BME280;31720;52.638;9.216;2022-09-03T05:10:21;101308.78;;;14.37;63.78
32033;BME280;31720;52.638;9.216;2022-09-03T05:13:23;101306.97;;;14.38;63.53
32033;BME280;31720;52.638;9.216;2022-09-03T05:16:25;101315.75;;;14.38;63.48
32033;BME280;31720;52.638;9.216;2022-09-03T05:19:30;101306.03;;;14.39;63.16
32033;BME280;31720;52.638;9.216;2022-09-03T05:22:32;101303.66;;;14.34;63.25
32033;BME280;31720;52.638;9.216;2022-09-03T05:25:33;101302.47;;;14.40;63.23
32033;BME280;31720;52.638;9.216;2022-09-03T05:28:39;101296.31;;;14.39;63.43
32033;BME280;31720;52.638;9.216;2022-09-03T05:31:41;101293.94;;;14.35;63.23
32033;BME280;31720;52.638;9.216;2022-09-03T05:34:43;101302.66;;;14.37;63.54
32033;BME280;31720;52.638;9.216;2022-09-03T05:37:45;101293.47;;;14.42;63.39
32033;BME280;31720;52.638;9.216;2022-09-03T05:40:47;101296.78;;;14.46;63.41
32033;BME280;31720;52.638;9.216;2022-09-03T05:43:49;101299.09;;;14.52;63.25
32033;BME280;31720;52.638;9.216;2022-09-03T05:46:55;101295.69;;;14.50;62.88
32033;BME280;31720;52.638;9.216;2022-09-03T05:49:58;101304.59;;;14.49;62.98
32033;BME280;31720;52.638;9.216;2022-09-03T05:52:59;101307.13;;;14.51;63.25
32033;BME280;31720;52.638;9.216;2022-09-03T05:56:03;101297.84;;;14.58;63.14
32033;BME280;31720;52.638;9.216;2022-09-03T05:59:07;101300.44;;;14.59;62.50
32033;BME280;31720;52.638;9.216;2022-09-03T06:02:09;101302.22;;;14.59;63.14
32033;BME280;31720;52.638;9.216;2022-09-03T06:05:12;101304.66;;;14.62;63.07
32033;BME280;31720;52.638;9.216;2022-09-03T06:08:13;101308.81;;;14.66;62.99
32033;BME280;31720;52.638;9.216;2022-09-03T06:11:14;101307.81;;;14.68;62.88
32033;BME280;31720;52.638;9.216;2022-09-03T06:14:16;101312.69;;;14.75;62.72
32033;BME280;31720;52.638;9.216;2022-09-03T06:17:18;101304.59;;;14.78;63.20
32033;BME280;31720;52.638;9.216;2022-09-03T06:20:21;101308.63;;;14.83;62.93
32033;BME280;31720;52.638;9.216;2022-09-03T06:23:29;101310.34;;;14.84;62.41
32033;BME280;31720;52.638;9.216;2022-09-03T06:26:30;101317.06;;;14.90;63.12
32033;BME280;31720;52.638;9.216;2022-09-03T06:29:32;101319.41;;;14.94;62.32
32033;BME280;31720;52.638;9.216;2022-09-03T06:32:42;101311.19;;;14.99;62.93
32033;BME280;31720;52.638;9.216;2022-09-03T06:35:45;101314.28;;;15.06;62.24
32033;BME280;31720;52.638;9.216;2022-09-03T06:38:50;101307.38;;;15.03;62.09
32033;BME280;31720;52.638;9.216;2022-09-03T06:41:52;101310.81;;;15.05;62.13
32033;BME280;31720;52.638;9.216;2022-09-03T06:44:54;101311.34;;;15.10;62.12
32033;BME280;31720;52.638;9.216;2022-09-03T06:47:56;101313.59;;;15.16;62.14
32033;BME280;31720;52.638;9.216;2022-09-03T06:51:00;101322.75;;;15.25;62.19
32033;BME280;31720;52.638;9.216;2022-09-03T06:54:03;101319.19;;;15.26;61.54
32033;BME280;31720;52.638;9.216;2022-09-03T06:57:05;101326.63;;;15.34;61.44
32033;BME280;31720;52.638;9.216;2022-09-03T07:00:07;101321.13;;;15.37;61.14
32033;BME280;31720;52.638;9.216;2022-09-03T07:03:09;101320.97;;;15.40;61.53
32033;BME280;31720;52.638;9.216;2022-09-03T07:06:13;101320.66;;;15.44;61.04
32033;BME280;31720;52.638;9.216;2022-09-03T07:09:15;101316.84;;;15.48;61.34
32033;BME280;31720;52.638;9.216;2022-09-03T07:12:18;101316.53;;;15.53;61.16
32033;BME280;31720;52.638;9.216;2022-09-03T07:15:19;101317.84;;;15.60;60.38
32033;BME280;31720;52.638;9.216;2022-09-03T07:18:20;101319.28;;;15.66;60.59
32033;BME280;31720;52.638;9.216;2022-09-03T07:21:24;101311.25;;;15.67;60.50
32033;BME280;31720;52.638;9.216;2022-09-03T07:24:26;101308.28;;;15.72;60.70
32033;BME280;31720;52.638;9.216;2022-09-03T07:27:28;101312.97;;;15.81;60.19
32033;BME280;31720;52.638;9.216;2022-09-03T07:30:30;101307.38;;;15.86;60.46
32033;BME280;31720;52.638;9.216;2022-09-03T07:33:31;101306.22;;;15.90;59.88
32033;BME280;31720;52.638;9.216;2022-09-03T07:36:37;101310.91;;;15.99;59.77
32033;BME280;31720;52.638;9.216;2022-09-03T07:39:39;101317.38;;;16.08;59.38
32033;BME280;31720;52.638;9.216;2022-09-03T07:42:41;101321.50;;;16.12;59.50
32033;BME280;31720;52.638;9.216;2022-09-03T07:45:49;101316.97;;;16.14;59.37
32033;BME280;31720;52.638;9.216;2022-09-03T07:48:51;101317.31;;;16.22;58.86
32033;BME280;31720;52.638;9.216;2022-09-03T07:51:54;101312.53;;;16.27;59.18
32033;BME280;31720;52.638;9.216;2022-09-03T07:54:56;101313.91;;;16.33;59.38
32033;BME280;31720;52.638;9.216;2022-09-03T07:57:58;101309.91;;;16.40;58.88
32033;BME280;31720;52.638;9.216;2022-09-03T08:01:04;101308.38;;;16.48;58.84
32033;BME280;31720;52.638;9.216;2022-09-03T08:04:07;101315.63;;;16.59;58.04
32033;BME280;31720;52.638;9.216;2022-09-03T08:07:11;101320.63;;;16.64;58.33
32033;BME280;31720;52.638;9.216;2022-09-03T08:10:12;101316.28;;;16.76;57.38
32033;BME280;31720;52.638;9.216;2022-09-03T08:13:14;101314.50;;;16.76;56.47
32033;BME280;31720;52.638;9.216;2022-09-03T08:16:16;101313.84;;;16.85;57.00
32033;BME280;31720;52.638;9.216;2022-09-03T08:19:18;101309.91;;;16.91;57.09
32033;BME280;31720;52.638;9.216;2022-09-03T08:22:20;101304.03;;;16.98;56.84
32033;BME280;31720;52.638;9.216;2022-09-03T08:25:24;101316.94;;;17.16;56.52
32033;BME280;31720;52.638;9.216;2022-09-03T08:28:26;101315.69;;;17.21;55.60
32033;BME280;31720;52.638;9.216;2022-09-03T08:31:28;101315.94;;;17.30;55.78
32033;BME280;31720;52.638;9.216;2022-09-03T08:34:30;101322.53;;;17.37;54.47
32033;BME280;31720;52.638;9.216;2022-09-03T08:37:32;101305.06;;;17.45;54.12
32033;BME280;31720;52.638;9.216;2022-09-03T08:40:36;101308.22;;;17.50;54.46
32033;BME280;31720;52.638;9.216;2022-09-03T08:43:52;101305.06;;;17.69;53.81
32033;BME280;31720;52.638;9.216;2022-09-03T08:46:58;101314.53;;;17.73;53.58
32033;BME280;31720;52.638;9.216;2022-09-03T08:50:03;101305.31;;;17.90;53.29
32033;BME280;31720;52.638;9.216;2022-09-03T08:53:13;101301.34;;;17.96;53.13
32033;BME280;31720;52.638;9.216;2022-09-03T08:56:23;101300.50;;;17.95;52.80
32033;BME280;31720;52.638;9.216;2022-09-03T08:59:25;101313.19;;;18.03;53.93
32033;BME280;31720;52.638;9.216;2022-09-03T09:02:35;101303.44;;;18.15;52.47
32033;BME280;31720;52.638;9.216;2022-09-03T09:05:46;101296.00;;;18.31;52.65
32033;BME280;31720;52.638;9.216;2022-09-03T09:09:06;101287.41;;;18.50;51.17
32033;BME280;31720;52.638;9.216;2022-09-03T09:12:18;101288.25;;;18.62;49.72
32033;BME280;31720;52.638;9.216;2022-09-03T09:15:27;101292.53;;;18.75;49.78
32033;BME280;31720;52.638;9.216;2022-09-03T09:18:41;101287.56;;;18.82;49.32
32033;BME280;31720;52.638;9.216;2022-09-03T09:21:50;101285.91;;;18.81;50.09
32033;BME280;31720;52.638;9.216;2022-09-03T09:24:57;101274.38;;;18.92;49.35
32033;BME280;31720;52.638;9.216;2022-09-03T09:28:03;101272.56;;;19.04;49.30
32033;BME280;31720;52.638;9.216;2022-09-03T09:31:09;101276.16;;;19.14;48.77
32033;BME280;31720;52.638;9.216;2022-09-03T09:34:11;101273.44;;;19.36;48.64
32033;BME280;31720;52.638;9.216;2022-09-03T09:37:14;101274.16;;;19.38;47.55
32033;BME280;31720;52.638;9.216;2022-09-03T09:40:27;101285.41;;;19.42;48.27
32033;BME280;31720;52.638;9.216;2022-09-03T09:43:31;101267.94;;;19.49;47.40
32033;BME280;31720;52.638;9.216;2022-09-03T09:46:34;101269.63;;;19.50;47.00
32033;BME280;31720;52.638;9.216;2022-09-03T09:49:42;101266.00;;;19.62;46.80
32033;BME280;31720;52.638;9.216;2022-09-03T09:52:59;101270.19;;;19.76;45.65
32033;BME280;31720;52.638;9.216;2022-09-03T09:56:05;101263.03;;;19.76;46.53
32033;BME280;31720;52.638;9.216;2022-09-03T09:59:08;101269.19;;;19.98;45.73
32033;BME280;31720;52.638;9.216;2022-09-03T10:02:12;101266.22;;;20.12;45.89
32033;BME280;31720;52.638;9.216;2022-09-03T10:05:19;101252.59;;;20.15;45.98
32033;BME280;31720;52.638;9.216;2022-09-03T10:08:21;101253.19;;;20.19;45.82
32033;BME280;31720;52.638;9.216;2022-09-03T10:11:25;101256.50;;;20.32;44.97
32033;BME280;31720;52.638;9.216;2022-09-03T10:14:30;101253.63;;;20.45;44.41
32033;BME280;31720;52.638;9.216;2022-09-03T10:17:39;101248.00;;;20.48;44.51
32033;BME280;31720;52.638;9.216;2022-09-03T10:20:47;101244.44;;;20.59;44.25
32033;BME280;31720;52.638;9.216;2022-09-03T10:23:57;101247.13;;;20.68;44.43
32033;BME280;31720;52.638;9.216;2022-09-03T10:27:01;101236.63;;;20.76;42.95
32033;BME280;31720;52.638;9.216;2022-09-03T10:30:03;101244.50;;;20.78;43.00
32033;BME280;31720;52.638;9.216;2022-09-03T10:33:10;101242.41;;;20.91;42.42
32033;BME280;31720;52.638;9.216;2022-09-03T10:36:17;101233.03;;;21.07;42.40
32033;BME280;31720;52.638;9.216;2022-09-03T10:39:24;101230.41;;;21.26;40.95
32033;BME280;31720;52.638;9.216;2022-09-03T10:42:39;101239.13;;;21.28;41.36
32033;BME280;31720;52.638;9.216;2022-09-03T10:45:53;101228.59;;;21.46;40.81
32033;BME280;31720;52.638;9.216;2022-09-03T10:49:10;101223.97;;;21.58;40.66
32033;BME280;31720;52.638;9.216;2022-09-03T10:52:23;101226.06;;;21.54;41.11
32033;BME280;31720;52.638;9.216;2022-09-03T10:55:32;101215.38;;;21.64;39.76
32033;BME280;31720;52.638;9.216;2022-09-03T10:58:49;101215.59;;;21.80;39.51
32033;BME280;31720;52.638;9.216;2022-09-03T11:02:00;101218.84;;;22.03;39.32
32033;BME280;31720;52.638;9.216;2022-09-03T11:05:10;101218.41;;;22.08;39.02
32033;BME280;31720;52.638;9.216;2022-09-03T11:08:20;101199.66;;;22.17;39.04
32033;BME280;31720;52.638;9.216;2022-09-03T11:11:27;101203.38;;;22.34;37.98
32033;BME280;31720;52.638;9.216;2022-09-03T11:14:37;101194.13;;;22.56;36.76
32033;BME280;31720;52.638;9.216;2022-09-03T11:17:45;101184.91;;;22.68;36.60
32033;BME280;31720;52.638;9.216;2022-09-03T11:20:51;101185.50;;;22.90;36.67
32033;BME280;31720;52.638;9.216;2022-09-03T11:24:03;101201.94;;;23.22;36.09
32033;BME280;31720;52.638;9.216;2022-09-03T11:27:19;101183.75;;;23.34;35.31
32033;BME280;31720;52.638;9.216;2022-09-03T11:30:32;101177.84;;;23.48;35.61
32033;BME280;31720;52.638;9.216;2022-09-03T11:33:40;101187.13;;;23.72;34.67
32033;BME280;31720;52.638;9.216;2022-09-03T11:36:44;101179.50;;;23.85;34.31
32033;BME280;31720;52.638;9.216;2022-09-03T11:39:53;101181.78;;;24.06;33.67
32033;BME280;31720;52.638;9.216;2022-09-03T11:43:05;101183.41;;;24.25;33.93
32033;BME280;31720;52.638;9.216;2022-09-03T11:46:11;101186.03;;;24.43;33.31
32033;BME280;31720;52.638;9.216;2022-09-03T11:49:26;101183.22;;;24.52;33.18
32033;BME280;31720;52.638;9.216;2022-09-03T11:52:29;101170.53;;;24.71;32.99
32033;BME280;31720;52.638;9.216;2022-09-03T11:55:32;101169.91;;;24.85;32.29
32033;BME280;31720;52.638;9.216;2022-09-03T11:58:58;101174.97;;;24.96;32.17
32033;BME280;31720;52.638;9.216;2022-09-03T12:02:05;101162.25;;;25.15;32.62
32033;BME280;31720;52.638;9.216;2022-09-03T12:05:25;101171.50;;;25.37;31.51
32033;BME280;31720;52.638;9.216;2022-09-03T12:08:47;101157.53;;;25.58;31.68
32033;BME280;31720;52.638;9.216;2022-09-03T12:12:00;101158.69;;;25.79;31.12
32033;BME280;31720;52.638;9.216;2022-09-03T12:15:13;101162.38;;;25.95;30.22
32033;BME280;31720;52.638;9.216;2022-09-03T12:18:22;101156.00;;;25.88;30.21
32033;BME280;31720;52.638;9.216;2022-09-03T12:21:25;101161.88;;;25.99;30.15
32033;BME280;31720;52.638;9.216;2022-09-03T12:24:27;101154.41;;;26.18;29.46
32033;BME280;31720;52.638;9.216;2022-09-03T12:27:32;101155.84;;;26.37;29.77
32033;BME280;31720;52.638;9.216;2022-09-03T12:30:34;101142.63;;;26.11;29.58
32033;BME280;31720;52.638;9.216;2022-09-03T12:33:39;101140.69;;;26.36;29.96
32033;BME280;31720;52.638;9.216;2022-09-03T12:36:43;101139.84;;;26.43;29.28
32033;BME280;31720;52.638;9.216;2022-09-03T12:39:50;101144.09;;;26.69;29.24
32033;BME280;31720;52.638;9.216;2022-09-03T12:42:53;101135.69;;;26.64;28.46
32033;BME280;31720;52.638;9.216;2022-09-03T12:45:54;101144.84;;;26.54;29.10
32033;BME280;31720;52.638;9.216;2022-09-03T12:48:59;101142.63;;;26.89;28.23
32033;BME280;31720;52.638;9.216;2022-09-03T12:52:10;101142.69;;;27.04;28.63
32033;BME280;31720;52.638;9.216;2022-09-03T12:55:24;101132.56;;;27.29;27.87
32033;BME280;31720;52.638;9.216;2022-09-03T12:58:31;101134.34;;;27.37;27.92
32033;BME280;31720;52.638;9.216;2022-09-03T13:01:39;101132.78;;;27.42;27.70
32033;BME280;31720;52.638;9.216;2022-09-03T13:04:45;101129.25;;;27.42;27.52
32033;BME280;31720;52.638;9.216;2022-09-03T13:07:50;101124.38;;;27.37;27.66
32033;BME280;31720;52.638;9.216;2022-09-03T13:10:56;101123.56;;;27.51;27.71
32033;BME280;31720;52.638;9.216;2022-09-03T13:14:00;101123.97;;;27.63;27.46
32033;BME280;31720;52.638;9.216;2022-09-03T13:17:18;101116.59;;;27.80;27.88
32033;BME280;31720;52.638;9.216;2022-09-03T13:20:32;101119.16;;;27.73;27.19
32033;BME280;31720;52.638;9.216;2022-09-03T13:23:42;101115.91;;;27.78;26.47
32033;BME280;31720;52.638;9.216;2022-09-03T13:26:57;101117.97;;;27.91;27.24
32033;BME280;31720;52.638;9.216;2022-09-03T13:30:07;101121.06;;;28.02;26.61
32033;BME280;31720;52.638;9.216;2022-09-03T13:33:17;101117.41;;;27.95;26.96
32033;BME280;31720;52.638;9.216;2022-09-03T13:36:26;101120.31;;;27.94;26.66
32033;BME280;31720;52.638;9.216;2022-09-03T13:39:37;101118.44;;;28.09;26.70
32033;BME280;31720;52.638;9.216;2022-09-03T13:42:43;101128.66;;;28.28;27.14
32033;BME280;31720;52.638;9.216;2022-09-03T13:45:51;101118.88;;;28.42;26.43
32033;BME280;31720;52.638;9.216;2022-09-03T13:48:58;101121.00;;;28.47;26.13
32033;BME280;31720;52.638;9.216;2022-09-03T13:52:26;101121.56;;;28.42;26.12
32033;BME280;31720;52.638;9.216;2022-09-03T13:55:33;101118.88;;;28.42;25.74
32033;BME280;31720;52.638;9.216;2022-09-03T13:58:41;101117.25;;;28.63;25.59
32033;BME280;31720;52.638;9.216;2022-09-03T14:01:59;101111.63;;;28.64;25.38
32033;BME280;31720;52.638;9.216;2022-09-03T14:05:05;101116.72;;;28.74;25.85
32033;BME280;31720;52.638;9.216;2022-09-03T14:08:14;101121.31;;;28.73;25.69
32033;BME280;31720;52.638;9.216;2022-09-03T14:11:22;101112.22;;;28.60;25.61
32033;BME280;31720;52.638;9.216;2022-09-03T14:14:36;101109.72;;;28.58;25.34
32033;BME280;31720;52.638;9.216;2022-09-03T14:17:43;101114.03;;;28.23;25.94
32033;BME280;31720;52.638;9.216;2022-09-03T14:20:53;101106.13;;;27.92;26.43
32033;BME280;31720;52.638;9.216;2022-09-03T14:24:03;101117.06;;;27.61;26.76
32033;BME280;31720;52.638;9.216;2022-09-03T14:27:07;101104.00;;;27.87;26.19
32033;BME280;31720;52.638;9.216;2022-09-03T14:30:23;101105.38;;;28.27;26.23
32033;BME280;31720;52.638;9.216;2022-09-03T14:33:29;101103.72;;;28.63;25.41
32033;BME280;31720;52.638;9.216;2022-09-03T14:36:37;101103.38;;;28.51;24.83
32033;BME280;31720;52.638;9.216;2022-09-03T14:39:48;101107.47;;;28.62;25.25
32033;BME280;31720;52.638;9.216;2022-09-03T14:43:04;101101.41;;;28.81;25.14
32033;BME280;31720;52.638;9.216;2022-09-03T14:46:20;101103.72;;;28.84;24.53
32033;BME280;31720;52.638;9.216;2022-09-03T14:49:37;101108.00;;;28.72;24.73
32033;BME280;31720;52.638;9.216;2022-09-03T14:52:56;101103.06;;;28.61;25.00
32033;BME280;31720;52.638;9.216;2022-09-03T14:56:27;101104.78;;;28.47;25.21
32033;BME280;31720;52.638;9.216;2022-09-03T14:59:58;101100.63;;;28.15;25.25
32033;BME280;31720;52.638;9.216;2022-09-03T15:03:15;101097.94;;;28.00;25.88
32033;BME280;31720;52.638;9.216;2022-09-03T15:06:27;101100.94;;;27.90;25.60
32033;BME280;31720;52.638;9.216;2022-09-03T15:09:37;101104.63;;;27.74;25.92
32033;BME280;31720;52.638;9.216;2022-09-03T15:12:44;101107.81;;;27.78;26.33
32033;BME280;31720;52.638;9.216;2022-09-03T15:15:57;101092.84;;;27.75;26.58
32033;BME280;31720;52.638;9.216;2022-09-03T15:19:11;101093.72;;;27.68;26.52
32033;BME280;31720;52.638;9.216;2022-09-03T15:22:18;101098.66;;;27.64;26.33
32033;BME280;31720;52.638;9.216;2022-09-03T15:25:32;101104.47;;;27.76;25.73
32033;BME280;31720;52.638;9.216;2022-09-03T15:28:50;101099.72;;;27.78;26.22
32033;BME280;31720;52.638;9.216;2022-09-03T15:32:01;101106.34;;;27.75;26.10
32033;BME280;31720;52.638;9.216;2022-09-03T15:35:08;101097.75;;;27.72;25.92
32033;BME280;31720;52.638;9.216;2022-09-03T15:38:18;101103.16;;;27.72;26.27
32033;BME280;31720;52.638;9.216;2022-09-03T15:41:30;101098.06;;;27.39;26.74
32033;BME280;31720;52.638;9.216;2022-09-03T15:44:39;101106.41;;;27.29;27.21
32033;BME280;31720;52.638;9.216;2022-09-03T15:47:52;101107.81;;;27.25;26.92
32033;BME280;31720;52.638;9.216;2022-09-03T15:51:01;101096.59;;;27.14;26.96
32033;BME280;31720;52.638;9.216;2022-09-03T15:54:11;101107.63;;;27.04;26.99
32033;BME280;31720;52.638;9.216;2022-09-03T15:57:20;101111.09;;;26.90;27.14
32033;BME280;31720;52.638;9.216;2022-09-03T16:00:27;101109.47;;;26.80;27.30
32033;BME280;31720;52.638;9.216;2022-09-03T16:03:37;101107.84;;;26.71;27.40
32033;BME280;31720;52.638;9.216;2022-09-03T16:06:54;101103.34;;;26.64;27.30
32033;BME280;31720;52.638;9.216;2022-09-03T16:10:04;101114.84;;;26.58;27.85
32033;BME280;31720;52.638;9.216;2022-09-03T16:13:23;101104.09;;;26.41;28.31
32033;BME280;31720;52.638;9.216;2022-09-03T16:16:45;101102.88;;;26.21;27.62
32033;BME280;31720;52.638;9.216;2022-09-03T16:19:53;101100.38;;;26.11;28.00